Time;durP1;ratioP1;P1;durP2;ratioP2;P2;SDS_P1;SDS_P2;PMS_P1;PMS_P2;Temp;Humidity;BMP_temperature;BMP_pressure;BME280_temperature;BME280_humidity;BME280_pressure;Samples;Min_cycle;Max_cycle;Signal;HPM_P1;HPM_P2
2022/11/01 00:01:08;;;;;;;13.75;4.68;;;;;;;;;;4995471;28;20046;-81
2022/11/01 00:03:34;;;;;;;9.43;4.78;;;;;;;;;;4995569;28;20019;-81
2022/11/01 00:06:00;;;;;;;11.13;4.97;;;;;;;;;;4995625;28;20031;-81
2022/11/01 00:08:26;;;;;;;16.33;4.80;;;;;;;;;;4995572;28;20101;-81
2022/11/01 00:10:53;;;;;;;14.57;5.13;;;;;;;;;;4995397;28;20026;-81
2022/11/01 00:13:19;;;;;;;17.50;5.53;;;;;;;;;;4995180;28;20026;-81
2022/11/01 00:15:45;;;;;;;12.32;4.93;;;;;;;;;;5009898;28;20389;-81
2022/11/01 00:18:11;;;;;;;13.73;4.93;;;;;;;;;;5010497;28;20487;-81
2022/11/01 00:20:37;;;;;;;15.82;5.10;;;;;;;;;;5014821;28;20018;-81
2022/11/01 00:23:03;;;;;;;15.57;5.22;;;;;;;;;;5014716;28;20170;-81
2022/11/01 00:25:29;;;;;;;14.98;4.90;;;;;;;;;;5014602;28;20112;-81
2022/11/01 00:27:55;;;;;;;16.40;5.45;;;;;;;;;;5008549;28;20493;-81
2022/11/01 00:30:21;;;;;;;12.13;4.75;;;;;;;;;;4996576;28;20029;-81
2022/11/01 00:32:47;;;;;;;14.93;5.10;;;;;;;;;;5013639;28;20064;-81
2022/11/01 00:35:13;;;;;;;13.68;5.05;;;;;;;;;;5014522;28;20034;-81
2022/11/01 00:37:39;;;;;;;14.45;5.57;;;;;;;;;;4997051;28;20030;-81
2022/11/01 00:40:05;;;;;;;11.48;5.30;;;;;;;;;;5014598;28;20369;-80
2022/11/01 00:42:31;;;;;;;19.05;4.88;;;;;;;;;;4996955;28;20114;-81
2022/11/01 00:44:58;;;;;;;16.30;4.90;;;;;;;;;;5014434;28;20101;-81
2022/11/01 00:47:24;;;;;;;16.42;5.72;;;;;;;;;;4995060;28;20026;-81
2022/11/01 00:49:50;;;;;;;17.88;5.53;;;;;;;;;;4994777;28;20031;-80
2022/11/01 00:52:16;;;;;;;14.10;5.70;;;;;;;;;;4977531;28;20038;-81
2022/11/01 00:54:42;;;;;;;11.25;5.00;;;;;;;;;;4977378;28;20026;-82
2022/11/01 00:57:08;;;;;;;20.17;6.15;;;;;;;;;;4994707;28;20049;-81
2022/11/01 00:59:34;;;;;;;16.27;5.68;;;;;;;;;;4993314;28;20037;-81
2022/11/01 01:02:00;;;;;;;13.77;6.13;;;;;;;;;;4994738;28;20050;-81
2022/11/01 01:04:27;;;;;;;12.65;5.47;;;;;;;;;;4994631;28;20034;-81
2022/11/01 01:06:53;;;;;;;15.10;6.13;;;;;;;;;;4994653;28;20080;-81
2022/11/01 01:09:19;;;;;;;12.80;5.75;;;;;;;;;;4977156;28;20037;-81
2022/11/01 01:11:45;;;;;;;13.45;6.00;;;;;;;;;;4993001;28;20034;-81
2022/11/01 01:14:11;;;;;;;15.68;6.07;;;;;;;;;;4994371;28;20106;-81
2022/11/01 01:16:37;;;;;;;19.23;6.50;;;;;;;;;;4997056;28;20014;-81
2022/11/01 01:19:03;;;;;;;19.33;5.65;;;;;;;;;;5014049;28;20022;-81
2022/11/01 01:21:29;;;;;;;16.23;5.93;;;;;;;;;;5013997;28;20449;-81
2022/11/01 01:23:55;;;;;;;17.92;6.22;;;;;;;;;;4980016;28;20441;-81
2022/11/01 01:26:21;;;;;;;17.88;5.90;;;;;;;;;;5013514;28;20129;-81
2022/11/01 01:28:47;;;;;;;14.23;5.07;;;;;;;;;;4998017;28;20029;-81
2022/11/01 01:31:13;;;;;;;10.93;5.30;;;;;;;;;;4976768;28;20030;-80
2022/11/01 01:33:40;;;;;;;15.45;5.60;;;;;;;;;;4993880;28;20073;-81
2022/11/01 01:36:06;;;;;;;12.35;5.43;;;;;;;;;;4992475;28;20022;-81
2022/11/01 01:38:32;;;;;;;17.08;5.60;;;;;;;;;;4993845;28;20026;-81
2022/11/01 01:41:54;;;;;;;15.77;5.40;;;;;;;;;;4993756;28;20129;-81
2022/11/01 01:43:44;;;;;;;10.55;4.90;;;;;;;;;;4993450;28;20450;-81
2022/11/01 01:46:10;;;;;;;15.55;5.60;;;;;;;;;;4993561;28;20030;-81
2022/11/01 01:48:37;;;;;;;14.35;5.90;;;;;;;;;;4993588;28;20027;-81
2022/11/01 01:51:05;;;;;;;12.10;5.10;;;;;;;;;;4993105;28;20144;-81
2022/11/01 01:53:33;;;;;;;13.75;5.45;;;;;;;;;;5002701;28;20037;-82
2022/11/01 01:56:01;;;;;;;14.70;5.15;;;;;;;;;;5000559;28;20070;-81
2022/11/01 01:58:32;;;;;;;10.38;4.68;;;;;;;;;;4995615;28;20019;-82
2022/11/01 02:00:59;;;;;;;9.52;5.00;;;;;;;;;;4993670;28;20053;-82
2022/11/01 02:03:28;;;;;;;11.98;5.45;;;;;;;;;;4993756;28;20109;-82
2022/11/01 02:05:56;;;;;;;13.23;5.03;;;;;;;;;;4993640;28;20026;-81
2022/11/01 02:08:26;;;;;;;18.20;5.53;;;;;;;;;;4992085;28;20405;-81
2022/11/01 02:10:57;;;;;;;10.80;5.10;;;;;;;;;;4993380;28;20532;-81
2022/11/01 02:13:23;;;;;;;11.32;5.15;;;;;;;;;;4993312;28;20442;-82
2022/11/01 02:16:06;;;;;;;17.63;5.63;;;;;;;;;;4993395;28;20037;-81
2022/11/01 02:18:39;;;;;;;15.52;5.97;;;;;;;;;;5011432;28;20366;-81
2022/11/01 02:21:05;;;;;;;15.40;5.38;;;;;;;;;;5011626;28;20029;-82
2022/11/01 02:23:31;;;;;;;11.18;4.85;;;;;;;;;;5012573;28;20021;-81
2022/11/01 02:25:57;;;;;;;15.38;4.82;;;;;;;;;;4995047;28;20052;-81
2022/11/01 02:28:33;;;;;;;16.95;5.43;;;;;;;;;;5012304;28;20030;-82
2022/11/01 02:30:59;;;;;;;13.18;5.45;;;;;;;;;;4988047;28;20443;-81
2022/11/01 02:33:55;;;;;;;11.38;5.68;;;;;;;;;;5012885;28;20055;-81
2022/11/01 02:36:25;;;;;;;10.45;4.95;;;;;;;;;;4986434;28;20119;-81
2022/11/01 02:39:02;;;;;;;14.77;4.85;;;;;;;;;;5012743;28;20084;-81
2022/11/01 02:41:47;;;;;;;13.93;5.03;;;;;;;;;;5012669;28;20022;-81
2022/11/01 02:44:20;;;;;;;10.95;4.90;;;;;;;;;;4995433;28;20034;-81
2022/11/01 02:47:01;;;;;;;14.35;5.32;;;;;;;;;;4994811;28;20402;-81
2022/11/01 02:49:33;;;;;;;12.32;5.70;;;;;;;;;;5012650;28;20115;-81
2022/11/01 02:52:00;;;;;;;10.80;5.05;;;;;;;;;;5012652;28;20088;-81
2022/11/01 02:54:28;;;;;;;13.82;5.05;;;;;;;;;;5012650;28;20421;-81
2022/11/01 02:56:54;;;;;;;14.63;4.88;;;;;;;;;;5012610;28;20044;-81
2022/11/01 02:59:24;;;;;;;9.32;4.32;;;;;;;;;;5012891;28;20045;-81
2022/11/01 03:01:54;;;;;;;11.60;5.50;;;;;;;;;;5012162;28;20481;-81
2022/11/01 03:04:20;;;;;;;13.43;4.72;;;;;;;;;;5012472;28;20033;-81
2022/11/01 03:06:50;;;;;;;9.95;4.60;;;;;;;;;;4994734;28;20392;-80
2022/11/01 03:09:16;;;;;;;10.93;4.32;;;;;;;;;;5012459;28;20061;-81
2022/11/01 03:11:48;;;;;;;13.40;4.57;;;;;;;;;;5012543;28;20030;-81
2022/11/01 03:14:23;;;;;;;9.48;4.32;;;;;;;;;;5012366;28;20022;-81
2022/11/01 03:17:00;;;;;;;9.85;4.38;;;;;;;;;;5012197;28;20455;-81
2022/11/01 03:19:35;;;;;;;13.43;4.47;;;;;;;;;;5012617;28;20022;-81
2022/11/01 03:22:16;;;;;;;10.38;3.95;;;;;;;;;;5012125;28;20028;-81
2022/11/01 03:24:42;;;;;;;10.10;4.78;;;;;;;;;;5012335;28;20034;-82
2022/11/01 03:27:22;;;;;;;9.15;4.20;;;;;;;;;;4993443;28;20057;-81
2022/11/01 03:29:55;;;;;;;8.90;4.00;;;;;;;;;;5012168;28;20116;-81
2022/11/01 03:32:23;;;;;;;10.88;4.32;;;;;;;;;;5012635;28;20500;-81
2022/11/01 03:34:49;;;;;;;9.68;4.30;;;;;;;;;;5015826;28;20427;-81
2022/11/01 03:37:16;;;;;;;10.18;4.05;;;;;;;;;;5015898;28;20522;-81
2022/11/01 03:39:45;;;;;;;11.38;4.32;;;;;;;;;;5015834;28;20537;-81
2022/11/01 03:42:14;;;;;;;10.80;3.97;;;;;;;;;;5015991;28;20045;-81
2022/11/01 03:44:42;;;;;;;12.30;4.30;;;;;;;;;;5015626;28;20451;-81
2022/11/01 03:47:08;;;;;;;12.68;3.70;;;;;;;;;;5015660;28;20041;-81
2022/11/01 03:49:34;;;;;;;10.05;3.58;;;;;;;;;;5015728;28;20472;-81
2022/11/01 03:52:00;;;;;;;10.27;3.35;;;;;;;;;;4997874;28;20472;-81
2022/11/01 03:54:28;;;;;;;8.05;4.00;;;;;;;;;;5015530;28;20424;-81
2022/11/01 03:56:54;;;;;;;13.50;3.67;;;;;;;;;;5015580;28;20136;-82
2022/11/01 03:59:22;;;;;;;9.50;3.38;;;;;;;;;;5015588;28;20030;-82
2022/11/01 04:01:48;;;;;;;7.03;3.30;;;;;;;;;;5015193;28;20054;-81
2022/11/01 04:04:14;;;;;;;9.52;3.35;;;;;;;;;;5015452;28;20129;-81
2022/11/01 04:06:40;;;;;;;9.23;3.42;;;;;;;;;;5014198;28;20056;-80
2022/11/01 04:09:06;;;;;;;7.60;2.30;;;;;;;;;;5015508;28;20073;-80
2022/11/01 04:11:32;;;;;;;8.50;2.30;;;;;;;;;;5015337;28;20060;-80
2022/11/01 04:22:12;;;;;;;4.10;1.38;;;;;;;;;;4981045;28;20180;-81
2022/11/01 04:24:38;;;;;;;7.15;1.50;;;;;;;;;;4994863;28;20489;-81
2022/11/01 04:27:04;;;;;;;3.28;1.20;;;;;;;;;;4978883;28;20085;-80
2022/11/01 04:29:30;;;;;;;5.32;0.90;;;;;;;;;;4995322;28;20030;-81
2022/11/01 04:31:56;;;;;;;4.32;1.08;;;;;;;;;;4995213;28;20758;-81
2022/11/01 04:37:07;;;;;;;4.68;1.13;;;;;;;;;;4995383;28;20512;-81
2022/11/01 04:39:33;;;;;;;3.97;1.30;;;;;;;;;;4995026;28;20023;-81
2022/11/01 04:41:59;;;;;;;8.93;1.10;;;;;;;;;;4994937;28;20026;-81
2022/11/01 04:44:25;;;;;;;5.70;0.90;;;;;;;;;;4994368;28;20532;-81
2022/11/01 04:46:51;;;;;;;5.10;0.70;;;;;;;;;;4994995;28;20465;-81
2022/11/01 04:49:17;;;;;;;3.95;0.90;;;;;;;;;;4994861;28;20026;-81
2022/11/01 04:51:43;;;;;;;3.97;1.00;;;;;;;;;;4994807;28;20034;-81
2022/11/01 04:54:09;;;;;;;2.80;0.73;;;;;;;;;;4994703;28;20073;-82
2022/11/01 04:56:35;;;;;;;7.10;0.77;;;;;;;;;;4977317;28;20030;-81
2022/11/01 04:59:01;;;;;;;3.85;0.70;;;;;;;;;;4977168;28;20027;-81
2022/11/01 05:01:27;;;;;;;3.42;0.65;;;;;;;;;;4987965;28;20046;-81
2022/11/01 05:03:54;;;;;;;3.20;0.57;;;;;;;;;;4975261;28;20026;-81
2022/11/01 05:06:20;;;;;;;1.30;0.47;;;;;;;;;;4958185;28;20033;-81
2022/11/01 05:08:46;;;;;;;4.30;0.90;;;;;;;;;;4975182;28;20389;-79
2022/11/01 05:11:12;;;;;;;3.72;0.68;;;;;;;;;;4973753;28;20122;-80
2022/11/01 05:13:38;;;;;;;4.05;0.60;;;;;;;;;;4975058;28;20087;-80
2022/11/01 05:16:05;;;;;;;5.30;0.60;;;;;;;;;;4974920;28;20078;-80
2022/11/01 05:18:31;;;;;;;5.13;0.95;;;;;;;;;;4973577;28;20027;-80
2022/11/01 05:20:57;;;;;;;4.95;0.57;;;;;;;;;;4957565;28;20034;-80
2022/11/01 05:23:23;;;;;;;6.55;1.00;;;;;;;;;;4971877;28;20023;-80
2022/11/01 05:25:49;;;;;;;3.58;0.73;;;;;;;;;;4976939;28;20085;-80
2022/11/01 05:28:15;;;;;;;5.97;0.70;;;;;;;;;;4982754;28;20085;-81
2022/11/01 05:30:42;;;;;;;3.15;0.80;;;;;;;;;;4974707;28;20027;-80
2022/11/01 05:33:09;;;;;;;10.15;0.75;;;;;;;;;;4957253;28;20130;-80
2022/11/01 05:35:35;;;;;;;5.13;0.88;;;;;;;;;;4957132;28;20030;-80
2022/11/01 05:38:03;;;;;;;4.30;0.70;;;;;;;;;;4974595;28;20027;-80
2022/11/01 05:40:29;;;;;;;4.80;0.60;;;;;;;;;;4957183;28;20023;-80
2022/11/01 05:42:55;;;;;;;3.10;0.75;;;;;;;;;;4974597;28;20114;-80
2022/11/01 05:45:21;;;;;;;5.95;0.90;;;;;;;;;;4956777;28;20043;-80
2022/11/01 05:47:47;;;;;;;3.65;0.70;;;;;;;;;;4983193;28;20373;-80
2022/11/01 05:50:14;;;;;;;2.65;0.70;;;;;;;;;;4993851;28;20432;-80
2022/11/01 05:52:41;;;;;;;4.15;0.80;;;;;;;;;;4993746;28;20026;-80
2022/11/01 05:55:08;;;;;;;4.35;0.60;;;;;;;;;;4993415;28;20058;-80
2022/11/01 05:57:34;;;;;;;3.45;0.90;;;;;;;;;;4992844;28;20027;-80
2022/11/01 06:00:00;;;;;;;10.27;1.10;;;;;;;;;;4976245;28;20092;-80
2022/11/01 06:02:26;;;;;;;8.93;1.73;;;;;;;;;;5006780;28;20042;-80
2022/11/01 06:04:52;;;;;;;7.80;1.90;;;;;;;;;;5013129;28;20047;-80
2022/11/01 06:07:19;;;;;;;4.30;0.82;;;;;;;;;;5013132;28;20046;-79
2022/11/01 06:09:45;;;;;;;1.38;0.60;;;;;;;;;;5012991;28;20508;-80
2022/11/01 06:12:11;;;;;;;1.83;0.38;;;;;;;;;;4995457;28;20042;-80
2022/11/01 06:14:37;;;;;;;3.78;0.63;;;;;;;;;;4995265;28;20499;-79
2022/11/01 06:17:03;;;;;;;4.57;0.52;;;;;;;;;;4987920;28;20027;-79
2022/11/01 06:19:29;;;;;;;6.32;0.70;;;;;;;;;;4993289;28;20053;-79
2022/11/01 06:21:55;;;;;;;6.35;0.63;;;;;;;;;;4993361;28;20023;-79
2022/11/01 06:24:21;;;;;;;4.53;0.70;;;;;;;;;;4993169;28;20030;-80
2022/11/01 06:26:47;;;;;;;3.15;0.60;;;;;;;;;;4992956;28;20023;-80
2022/11/01 06:29:13;;;;;;;10.02;0.82;;;;;;;;;;5011238;28;20826;-80
2022/11/01 06:31:39;;;;;;;6.03;0.80;;;;;;;;;;4994823;28;20033;-80
2022/11/01 06:34:05;;;;;;;5.45;0.90;;;;;;;;;;4996840;28;20026;-80
2022/11/01 06:36:31;;;;;;;5.18;0.93;;;;;;;;;;4995741;28;20033;-80
2022/11/01 06:38:57;;;;;;;11.32;1.15;;;;;;;;;;5012729;28;20029;-80
2022/11/01 06:41:23;;;;;;;10.32;1.33;;;;;;;;;;4995169;28;20109;-79
2022/11/01 06:43:49;;;;;;;11.10;1.13;;;;;;;;;;5012900;28;20065;-79
2022/11/01 06:46:15;;;;;;;8.15;0.98;;;;;;;;;;5006395;28;20052;-80
2022/11/01 06:48:41;;;;;;;6.75;1.02;;;;;;;;;;4991555;28;20098;-79
2022/11/01 06:51:07;;;;;;;10.27;1.10;;;;;;;;;;4996765;28;20066;-80
2022/11/01 06:53:33;;;;;;;11.15;1.20;;;;;;;;;;4992779;28;20037;-80
2022/11/01 06:55:59;;;;;;;8.45;1.10;;;;;;;;;;4992530;28;20138;-80
2022/11/01 06:58:26;;;;;;;14.88;1.08;;;;;;;;;;4991537;28;20501;-79
2022/11/01 07:00:52;;;;;;;12.80;1.60;;;;;;;;;;4992749;28;20035;-79
2022/11/01 07:03:18;;;;;;;12.63;1.45;;;;;;;;;;4999037;28;20062;-79
2022/11/01 07:05:44;;;;;;;8.93;1.20;;;;;;;;;;4996808;28;20497;-79
2022/11/01 07:08:11;;;;;;;6.40;1.20;;;;;;;;;;4993995;28;20033;-80
2022/11/01 07:10:39;;;;;;;8.32;1.30;;;;;;;;;;4996772;28;20389;-79
2022/11/01 07:13:06;;;;;;;7.68;1.60;;;;;;;;;;4996767;28;20026;-78
2022/11/01 07:15:32;;;;;;;12.40;1.88;;;;;;;;;;4979230;28;20100;-78
2022/11/01 07:17:59;;;;;;;9.55;1.38;;;;;;;;;;5012079;28;20073;-78
2022/11/01 07:20:26;;;;;;;10.23;1.20;;;;;;;;;;5016136;28;20037;-78
2022/11/01 07:22:59;;;;;;;10.13;1.40;;;;;;;;;;4994977;28;20019;-78
2022/11/01 07:25:25;;;;;;;15.48;1.33;;;;;;;;;;5004888;28;20535;-78
2022/11/01 07:27:51;;;;;;;6.95;1.05;;;;;;;;;;4991810;28;20497;-78
2022/11/01 07:30:17;;;;;;;9.23;1.30;;;;;;;;;;4996093;28;20034;-78
2022/11/01 07:32:43;;;;;;;12.18;1.20;;;;;;;;;;5000060;28;20053;-78
2022/11/01 07:35:09;;;;;;;8.18;1.88;;;;;;;;;;5008646;28;20039;-78
2022/11/01 07:37:35;;;;;;;11.52;1.58;;;;;;;;;;4996183;28;20023;-78
2022/11/01 07:40:02;;;;;;;11.57;1.30;;;;;;;;;;5009620;28;20073;-78
2022/11/01 07:42:28;;;;;;;18.13;1.63;;;;;;;;;;5003340;28;20035;-78
2022/11/01 07:44:54;;;;;;;11.90;1.27;;;;;;;;;;4995967;28;20073;-78
2022/11/01 07:47:20;;;;;;;16.65;1.40;;;;;;;;;;5002179;28;20029;-78
2022/11/01 07:49:47;;;;;;;16.08;1.92;;;;;;;;;;5015447;28;20026;-78
2022/11/01 07:52:14;;;;;;;8.32;1.35;;;;;;;;;;5015492;28;20040;-78
2022/11/01 07:54:40;;;;;;;9.90;1.50;;;;;;;;;;4997642;28;20120;-78
2022/11/01 07:57:06;;;;;;;12.02;2.47;;;;;;;;;;4987446;28;20045;-79
2022/11/01 07:59:32;;;;;;;10.75;1.08;;;;;;;;;;4994185;28;20377;-78
2022/11/01 08:01:58;;;;;;;12.00;1.50;;;;;;;;;;4977600;28;20480;-78
2022/11/01 08:04:24;;;;;;;11.63;1.33;;;;;;;;;;4978425;28;20057;-78
2022/11/01 08:06:50;;;;;;;12.38;1.98;;;;;;;;;;4999505;28;20034;-78
2022/11/01 08:09:16;;;;;;;7.05;1.20;;;;;;;;;;5014768;28;20021;-78
2022/11/01 08:11:42;;;;;;;9.00;1.35;;;;;;;;;;4997439;28;20476;-78
2022/11/01 08:14:08;;;;;;;13.15;1.60;;;;;;;;;;5010703;28;20480;-77
2022/11/01 08:16:34;;;;;;;10.02;1.33;;;;;;;;;;5018818;28;20440;-77
2022/11/01 08:19:00;;;;;;;11.50;1.88;;;;;;;;;;4983027;28;20034;-78
2022/11/01 08:21:26;;;;;;;13.05;1.42;;;;;;;;;;4993106;28;20069;-77
2022/11/01 08:23:52;;;;;;;8.55;1.38;;;;;;;;;;5000466;28;20101;-79
2022/11/01 08:26:18;;;;;;;17.02;2.15;;;;;;;;;;4993989;28;20034;-78
2022/11/01 08:28:44;;;;;;;18.92;1.95;;;;;;;;;;5005959;28;20072;-79
2022/11/01 08:31:11;;;;;;;9.40;1.60;;;;;;;;;;4995432;28;20512;-78
2022/11/01 08:33:37;;;;;;;18.25;2.20;;;;;;;;;;4993870;28;20121;-78
2022/11/01 08:36:03;;;;;;;14.05;1.42;;;;;;;;;;4993927;28;20614;-78
2022/11/01 08:38:29;;;;;;;10.88;1.58;;;;;;;;;;4998144;28;20038;-78
2022/11/01 08:40:55;;;;;;;13.18;1.90;;;;;;;;;;5004413;28;20037;-78
2022/11/01 08:43:22;;;;;;;24.58;2.25;;;;;;;;;;5002362;28;20033;-80
2022/11/01 08:45:49;;;;;;;15.40;2.17;;;;;;;;;;5007348;28;20641;-77
2022/11/01 08:48:15;;;;;;;12.77;1.98;;;;;;;;;;4997037;28;20033;-78
2022/11/01 08:50:41;;;;;;;19.52;1.63;;;;;;;;;;4997124;28;20040;-76
2022/11/01 08:53:12;;;;;;;21.23;1.98;;;;;;;;;;4980788;28;20038;-79
2022/11/01 08:55:38;;;;;;;18.60;1.98;;;;;;;;;;5014243;28;20034;-78
2022/11/01 08:58:05;;;;;;;18.38;1.92;;;;;;;;;;4996659;28;20022;-77
2022/11/01 09:00:31;;;;;;;18.15;1.95;;;;;;;;;;4996479;28;20022;-80
2022/11/01 09:02:57;;;;;;;14.70;1.85;;;;;;;;;;4993243;28;20489;-78
2022/11/01 09:05:23;;;;;;;15.35;2.05;;;;;;;;;;4994568;28;20042;-78
2022/11/01 09:07:49;;;;;;;8.23;1.90;;;;;;;;;;4994496;28;20027;-79
2022/11/01 09:10:16;;;;;;;14.20;1.77;;;;;;;;;;4997097;28;20033;-79
2022/11/01 09:12:42;;;;;;;17.23;2.65;;;;;;;;;;5013154;28;20472;-78
2022/11/01 09:15:09;;;;;;;11.43;1.70;;;;;;;;;;4996893;28;20473;-78
2022/11/01 09:17:35;;;;;;;13.63;2.10;;;;;;;;;;4998788;28;20025;-78
2022/11/01 09:20:03;;;;;;;12.95;1.63;;;;;;;;;;4995892;28;20121;-79
2022/11/01 09:22:29;;;;;;;14.05;1.92;;;;;;;;;;4999227;28;20050;-79
2022/11/01 09:24:57;;;;;;;21.90;2.17;;;;;;;;;;5011788;28;20381;-79
2022/11/01 09:27:24;;;;;;;11.60;1.63;;;;;;;;;;4976969;28;20061;-79
2022/11/01 09:29:50;;;;;;;19.42;1.95;;;;;;;;;;4994255;28;20027;-78
2022/11/01 09:32:16;;;;;;;20.95;2.60;;;;;;;;;;4960936;28;20053;-79
2022/11/01 09:34:42;;;;;;;11.32;2.10;;;;;;;;;;4976293;28;20027;-79
2022/11/01 09:37:08;;;;;;;8.85;2.17;;;;;;;;;;4976448;28;20026;-79
2022/11/01 09:39:34;;;;;;;16.95;2.17;;;;;;;;;;4976505;28;20103;-79
2022/11/01 09:42:14;;;;;;;13.65;1.65;;;;;;;;;;4993943;28;20113;-79
2022/11/01 09:44:43;;;;;;;19.83;2.67;;;;;;;;;;4993661;28;20383;-79
2022/11/01 09:47:17;;;;;;;17.05;2.55;;;;;;;;;;4976517;28;20052;-79
2022/11/01 09:49:46;;;;;;;12.38;1.38;;;;;;;;;;4976229;28;20031;-78
2022/11/01 09:52:23;;;;;;;18.92;2.15;;;;;;;;;;4976259;28;20065;-79
2022/11/01 09:54:49;;;;;;;14.82;1.92;;;;;;;;;;4993603;28;20026;-79
2022/11/01 09:57:18;;;;;;;15.60;2.05;;;;;;;;;;4993451;28;20109;-79
2022/11/01 10:00:06;;;;;;;19.63;2.13;;;;;;;;;;4993432;28;20033;-78
2022/11/01 10:02:49;;;;;;;13.60;1.60;;;;;;;;;;4994105;28;20053;-79
2022/11/01 10:05:33;;;;;;;13.13;1.90;;;;;;;;;;4977731;28;20065;-78
2022/11/01 10:08:00;;;;;;;16.65;1.80;;;;;;;;;;4976204;28;20034;-78
2022/11/01 10:10:29;;;;;;;11.25;1.65;;;;;;;;;;4993854;28;20568;-79
2022/11/01 10:13:03;;;;;;;12.35;1.83;;;;;;;;;;4976209;28;20037;-79
2022/11/01 10:15:32;;;;;;;18.40;2.22;;;;;;;;;;4975763;28;20428;-80
2022/11/01 10:18:03;;;;;;;8.75;1.85;;;;;;;;;;5002574;28;20136;-79
2022/11/01 10:20:31;;;;;;;15.70;1.55;;;;;;;;;;5012841;28;20041;-79
2022/11/01 10:22:58;;;;;;;12.90;2.58;;;;;;;;;;4995038;28;20032;-79
2022/11/01 10:25:26;;;;;;;13.20;1.77;;;;;;;;;;5012740;28;20058;-79
2022/11/01 10:27:52;;;;;;;11.90;1.60;;;;;;;;;;4987210;28;20033;-79
2022/11/01 10:30:19;;;;;;;14.90;1.83;;;;;;;;;;4993174;28;20080;-79
2022/11/01 10:32:51;;;;;;;13.27;2.13;;;;;;;;;;4993067;28;20035;-79
2022/11/01 10:35:20;;;;;;;16.90;2.92;;;;;;;;;;4992828;28;20067;-79
2022/11/01 10:37:54;;;;;;;20.50;1.70;;;;;;;;;;4975582;28;20034;-79
2022/11/01 10:40:24;;;;;;;17.80;2.50;;;;;;;;;;4994642;28;20022;-80
2022/11/01 10:42:51;;;;;;;13.55;1.58;;;;;;;;;;4992362;28;20030;-79
2022/11/01 10:45:18;;;;;;;11.57;1.73;;;;;;;;;;4975697;28;20031;-79
2022/11/01 10:47:45;;;;;;;18.38;2.70;;;;;;;;;;4994181;28;20081;-80
2022/11/01 10:50:11;;;;;;;15.85;2.05;;;;;;;;;;5011654;28;20460;-79
2022/11/01 10:52:55;;;;;;;11.07;1.35;;;;;;;;;;5012007;28;20026;-79
2022/11/01 10:55:28;;;;;;;11.13;1.90;;;;;;;;;;5001160;28;20037;-80
2022/11/01 10:58:05;;;;;;;11.55;2.00;;;;;;;;;;4993108;28;20018;-79
2022/11/01 11:00:34;;;;;;;18.95;1.83;;;;;;;;;;4975090;28;20500;-78
2022/11/01 11:03:07;;;;;;;14.13;1.52;;;;;;;;;;5003074;28;20050;-80
2022/11/01 11:05:33;;;;;;;13.82;1.58;;;;;;;;;;4991647;28;20033;-81
2022/11/01 11:08:03;;;;;;;15.15;1.77;;;;;;;;;;4992587;28;20042;-80
2022/11/01 11:10:29;;;;;;;15.25;1.38;;;;;;;;;;4992503;28;20038;-80
2022/11/01 11:13:02;;;;;;;15.02;2.30;;;;;;;;;;4993828;28;20481;-78
2022/11/01 11:15:35;;;;;;;15.07;2.25;;;;;;;;;;4992469;28;20061;-79
2022/11/01 11:18:01;;;;;;;14.25;1.77;;;;;;;;;;4999319;28;20125;-78
2022/11/01 11:20:29;;;;;;;9.25;1.40;;;;;;;;;;4992508;28;20019;-78
2022/11/01 11:22:55;;;;;;;7.82;1.60;;;;;;;;;;4975130;28;20027;-79
2022/11/01 11:25:28;;;;;;;15.10;2.10;;;;;;;;;;5003497;28;20018;-79
2022/11/01 11:27:55;;;;;;;15.38;1.65;;;;;;;;;;4985540;28;20043;-79
2022/11/01 11:30:33;;;;;;;15.25;2.25;;;;;;;;;;4992369;28;20022;-79
2022/11/01 11:33:00;;;;;;;15.98;1.63;;;;;;;;;;4986484;28;20354;-78
2022/11/01 11:35:29;;;;;;;10.25;1.92;;;;;;;;;;4992021;28;20078;-79
2022/11/01 11:37:56;;;;;;;11.93;1.40;;;;;;;;;;4991054;28;20065;-79
2022/11/01 11:40:24;;;;;;;13.05;1.90;;;;;;;;;;5007007;28;20069;-79
2022/11/01 11:42:51;;;;;;;11.70;2.28;;;;;;;;;;4994113;28;20416;-79
2022/11/01 11:45:30;;;;;;;15.98;1.88;;;;;;;;;;4994192;28;20092;-79
2022/11/01 11:47:58;;;;;;;12.95;1.70;;;;;;;;;;5011851;28;20034;-78
2022/11/01 11:50:26;;;;;;;13.63;2.35;;;;;;;;;;5011808;28;20029;-79
2022/11/01 11:52:57;;;;;;;8.70;1.25;;;;;;;;;;5011910;28;20029;-79
2022/11/01 11:55:44;;;;;;;11.02;1.45;;;;;;;;;;5013056;28;20022;-78
2022/11/01 11:58:30;;;;;;;12.45;1.67;;;;;;;;;;5015221;28;20334;-79
2022/11/01 12:00:59;;;;;;;8.40;1.40;;;;;;;;;;4984995;28;20074;-79
2022/11/01 12:03:26;;;;;;;8.63;1.67;;;;;;;;;;4995414;28;20043;-79
2022/11/01 12:05:58;;;;;;;12.55;1.73;;;;;;;;;;5006534;28;20471;-79
2022/11/01 12:08:28;;;;;;;10.95;2.22;;;;;;;;;;5022340;28;20026;-78
2022/11/01 12:10:58;;;;;;;13.02;1.80;;;;;;;;;;5017345;28;20087;-78
2022/11/01 12:13:31;;;;;;;11.30;2.08;;;;;;;;;;5034983;28;20432;-78
2022/11/01 12:16:13;;;;;;;11.73;1.40;;;;;;;;;;5033678;28;20104;-79
2022/11/01 12:18:58;;;;;;;12.52;1.30;;;;;;;;;;4996730;28;20018;-79
2022/11/01 12:21:24;;;;;;;8.68;1.73;;;;;;;;;;5015079;28;20029;-79
2022/11/01 12:23:56;;;;;;;13.23;1.92;;;;;;;;;;5014873;28;20366;-79
2022/11/01 12:26:22;;;;;;;16.80;2.00;;;;;;;;;;5006257;28;20062;-79
2022/11/01 12:28:59;;;;;;;9.20;1.42;;;;;;;;;;4995368;28;20081;-79
2022/11/01 12:31:26;;;;;;;11.85;1.42;;;;;;;;;;5011702;28;20112;-78
2022/11/01 12:33:55;;;;;;;9.82;1.27;;;;;;;;;;5004940;28;20240;-78
2022/11/01 12:36:26;;;;;;;12.02;1.45;;;;;;;;;;4992700;28;20492;-79
2022/11/01 12:38:55;;;;;;;19.48;1.98;;;;;;;;;;4998078;28;20035;-79
2022/11/01 12:41:24;;;;;;;10.95;1.40;;;;;;;;;;5014625;28;20026;-78
2022/11/01 12:43:58;;;;;;;8.25;1.33;;;;;;;;;;4995121;28;20176;-79
2022/11/01 12:46:29;;;;;;;9.98;1.33;;;;;;;;;;4995111;28;20034;-79
2022/11/01 12:49:02;;;;;;;13.70;1.53;;;;;;;;;;4995143;28;20029;-79
2022/11/01 12:51:30;;;;;;;6.25;1.10;;;;;;;;;;4996226;28;20058;-80
2022/11/01 12:53:59;;;;;;;12.48;1.38;;;;;;;;;;4995069;28;20037;-80
2022/11/01 12:56:26;;;;;;;13.65;1.50;;;;;;;;;;4994779;28;20041;-81
2022/11/01 12:58:53;;;;;;;7.57;1.13;;;;;;;;;;4993465;28;20157;-81
2022/11/01 13:01:38;;;;;;;10.80;1.17;;;;;;;;;;4994519;28;20061;-81
2022/11/01 13:04:12;;;;;;;12.02;1.35;;;;;;;;;;4997467;28;20038;-81
2022/11/01 13:06:47;;;;;;;6.55;1.30;;;;;;;;;;5013991;28;20026;-80
2022/11/01 13:09:13;;;;;;;13.57;1.80;;;;;;;;;;5014073;28;20477;-81
2022/11/01 13:11:59;;;;;;;12.30;1.52;;;;;;;;;;5013924;28;20084;-80
2022/11/01 13:14:38;;;;;;;8.25;1.27;;;;;;;;;;5013884;28;20037;-81
2022/11/01 13:17:15;;;;;;;7.07;1.23;;;;;;;;;;5013659;28;20024;-79
2022/11/01 13:19:50;;;;;;;7.28;1.27;;;;;;;;;;5014121;28;20033;-82
2022/11/01 13:22:33;;;;;;;15.25;1.52;;;;;;;;;;5013620;28;20158;-77
2022/11/01 13:24:59;;;;;;;10.10;1.50;;;;;;;;;;4995707;28;20026;-77
2022/11/01 13:27:33;;;;;;;6.10;0.98;;;;;;;;;;5007021;28;20113;-77
2022/11/01 13:30:09;;;;;;;5.05;1.00;;;;;;;;;;4993887;28;20500;-77
2022/11/01 13:32:49;;;;;;;11.40;1.83;;;;;;;;;;5006401;28;20038;-77
2022/11/01 13:35:15;;;;;;;9.98;1.27;;;;;;;;;;4982684;28;20025;-77
2022/11/01 13:37:48;;;;;;;12.02;1.25;;;;;;;;;;5012159;28;20034;-77
2022/11/01 13:40:14;;;;;;;6.55;1.30;;;;;;;;;;5013101;28;20694;-77
2022/11/01 13:42:52;;;;;;;11.73;2.05;;;;;;;;;;4995446;28;20030;-77
2022/11/01 13:45:33;;;;;;;15.88;1.45;;;;;;;;;;5009166;28;20026;-79
2022/11/01 13:48:15;;;;;;;15.95;1.20;;;;;;;;;;5013297;28;20094;-77
2022/11/01 13:50:48;;;;;;;6.47;1.00;;;;;;;;;;4994867;28;20164;-76
2022/11/01 13:53:22;;;;;;;6.25;1.45;;;;;;;;;;5012780;28;20461;-76
2022/11/01 13:56:00;;;;;;;7.35;1.10;;;;;;;;;;5011641;28;20026;-75
2022/11/01 13:58:27;;;;;;;5.72;1.50;;;;;;;;;;5011057;28;20025;-75
2022/11/01 14:00:54;;;;;;;8.95;1.20;;;;;;;;;;5011100;28;20105;-76
2022/11/01 14:03:21;;;;;;;7.68;1.20;;;;;;;;;;5011294;28;20037;-76
2022/11/01 14:06:10;;;;;;;8.55;1.00;;;;;;;;;;5011618;28;20067;-76
2022/11/01 14:08:38;;;;;;;5.63;0.95;;;;;;;;;;5009889;28;20108;-76
2022/11/01 14:11:04;;;;;;;9.10;1.30;;;;;;;;;;5011704;28;20022;-76
2022/11/01 14:13:35;;;;;;;7.22;1.23;;;;;;;;;;5012319;28;20449;-76
2022/11/01 14:16:01;;;;;;;7.63;1.50;;;;;;;;;;4992864;28;20034;-76
2022/11/01 14:18:28;;;;;;;6.95;1.13;;;;;;;;;;4991894;28;20109;-76
2022/11/01 14:20:55;;;;;;;11.85;1.80;;;;;;;;;;4992426;28;20094;-76
2022/11/01 14:23:26;;;;;;;11.57;1.60;;;;;;;;;;4992120;28;20022;-76
2022/11/01 14:26:11;;;;;;;8.00;1.10;;;;;;;;;;5020101;28;20472;-77
2022/11/01 14:28:42;;;;;;;11.88;1.50;;;;;;;;;;5001073;28;20468;-76
2022/11/01 14:31:08;;;;;;;10.45;1.95;;;;;;;;;;4992460;28;20034;-76
2022/11/01 14:33:35;;;;;;;6.30;0.93;;;;;;;;;;4993676;28;20029;-76
2022/11/01 14:36:02;;;;;;;6.97;1.00;;;;;;;;;;5000667;28;20045;-76
2022/11/01 14:38:40;;;;;;;11.48;1.15;;;;;;;;;;4993970;28;20034;-76
2022/11/01 14:41:07;;;;;;;8.57;1.30;;;;;;;;;;5008874;28;20049;-76
2022/11/01 14:43:33;;;;;;;9.60;1.50;;;;;;;;;;5009442;28;20057;-76
2022/11/01 14:46:00;;;;;;;7.80;1.05;;;;;;;;;;5011553;28;20077;-77
2022/11/01 14:48:35;;;;;;;7.40;1.00;;;;;;;;;;4990453;28;20575;-77
2022/11/01 14:51:01;;;;;;;9.68;1.20;;;;;;;;;;5010076;28;20033;-77
2022/11/01 14:53:38;;;;;;;11.48;1.35;;;;;;;;;;5011761;28;20033;-77
2022/11/01 14:56:10;;;;;;;6.88;1.10;;;;;;;;;;5011728;28;20418;-77